sensor_id;sensor_type;location;lat;lon;timestamp;P1;durP1;ratioP1;P2;durP2;ratioP2
8474;SDS011;4274;52.012;8.448;2022-12-07T00:01:35;94.00;;;26.37;;
8474;SDS011;4274;52.012;8.448;2022-12-07T00:04:05;83.63;;;26.67;;
8474;SDS011;4274;52.012;8.448;2022-12-07T00:06:33;89.03;;;26.23;;
8474;SDS011;4274;52.012;8.448;2022-12-07T00:09:02;132.53;;;29.23;;
8474;SDS011;4274;52.012;8.448;2022-12-07T00:11:29;107.37;;;29.60;;
8474;SDS011;4274;52.012;8.448;2022-12-07T00:13:57;116.37;;;29.80;;
8474;SDS011;4274;52.012;8.448;2022-12-07T00:16:25;107.00;;;30.10;;
8474;SDS011;4274;52.012;8.448;2022-12-07T00:18:53;131.63;;;31.53;;
8474;SDS011;4274;52.012;8.448;2022-12-07T00:21:23;248.53;;;32.47;;
8474;SDS011;4274;52.012;8.448;2022-12-07T00:23:51;84.23;;;27.37;;
8474;SDS011;4274;52.012;8.448;2022-12-07T00:26:18;118.97;;;29.40;;
8474;SDS011;4274;52.012;8.448;2022-12-07T00:28:48;170.63;;;33.17;;
8474;SDS011;4274;52.012;8.448;2022-12-07T00:31:16;100.87;;;30.37;;
8474;SDS011;4274;52.012;8.448;2022-12-07T00:33:43;113.27;;;29.50;;
8474;SDS011;4274;52.012;8.448;2022-12-07T00:36:09;107.73;;;31.23;;
8474;SDS011;4274;52.012;8.448;2022-12-07T00:38:37;100.53;;;31.47;;
8474;SDS011;4274;52.012;8.448;2022-12-07T00:41:08;100.37;;;30.90;;
8474;SDS011;4274;52.012;8.448;2022-12-07T00:43:39;99.03;;;30.23;;
8474;SDS011;4274;52.012;8.448;2022-12-07T00:46:05;97.57;;;29.83;;
8474;SDS011;4274;52.012;8.448;2022-12-07T00:48:31;99.13;;;31.03;;
8474;SDS011;4274;52.012;8.448;2022-12-07T00:50:57;101.73;;;30.60;;
8474;SDS011;4274;52.012;8.448;2022-12-07T00:53:23;95.20;;;31.90;;
8474;SDS011;4274;52.012;8.448;2022-12-07T00:55:48;100.53;;;31.10;;
8474;SDS011;4274;52.012;8.448;2022-12-07T00:58:14;90.03;;;30.73;;
8474;SDS011;4274;52.012;8.448;2022-12-07T01:00:40;97.77;;;29.80;;
8474;SDS011;4274;52.012;8.448;2022-12-07T01:03:08;95.67;;;29.07;;
8474;SDS011;4274;52.012;8.448;2022-12-07T01:05:34;84.63;;;28.70;;
8474;SDS011;4274;52.012;8.448;2022-12-07T01:08:00;89.03;;;27.13;;
8474;SDS011;4274;52.012;8.448;2022-12-07T01:10:26;82.90;;;27.10;;
8474;SDS011;4274;52.012;8.448;2022-12-07T01:12:52;84.70;;;28.77;;
8474;SDS011;4274;52.012;8.448;2022-12-07T01:15:18;82.80;;;26.10;;
8474;SDS011;4274;52.012;8.448;2022-12-07T01:17:44;81.90;;;25.87;;
8474;SDS011;4274;52.012;8.448;2022-12-07T01:20:09;78.70;;;26.20;;
8474;SDS011;4274;52.012;8.448;2022-12-07T01:22:39;81.80;;;26.10;;
8474;SDS011;4274;52.012;8.448;2022-12-07T01:25:06;73.17;;;23.90;;
8474;SDS011;4274;52.012;8.448;2022-12-07T01:27:32;83.30;;;25.47;;
8474;SDS011;4274;52.012;8.448;2022-12-07T01:29:59;72.53;;;23.33;;
8474;SDS011;4274;52.012;8.448;2022-12-07T01:32:25;73.47;;;25.67;;
8474;SDS011;4274;52.012;8.448;2022-12-07T01:34:51;71.53;;;23.73;;
8474;SDS011;4274;52.012;8.448;2022-12-07T01:37:16;83.43;;;28.03;;
8474;SDS011;4274;52.012;8.448;2022-12-07T01:39:42;78.37;;;23.97;;
8474;SDS011;4274;52.012;8.448;2022-12-07T01:42:11;69.97;;;22.20;;
8474;SDS011;4274;52.012;8.448;2022-12-07T01:47:40;68.63;;;19.47;;
8474;SDS011;4274;52.012;8.448;2022-12-07T01:50:07;68.63;;;20.90;;
8474;SDS011;4274;52.012;8.448;2022-12-07T01:52:33;69.50;;;20.20;;
8474;SDS011;4274;52.012;8.448;2022-12-07T01:55:09;71.60;;;22.90;;
8474;SDS011;4274;52.012;8.448;2022-12-07T01:57:39;66.53;;;19.30;;
8474;SDS011;4274;52.012;8.448;2022-12-07T02:00:08;74.43;;;18.57;;
8474;SDS011;4274;52.012;8.448;2022-12-07T02:02:39;68.67;;;20.23;;
8474;SDS011;4274;52.012;8.448;2022-12-07T02:05:27;64.40;;;18.37;;
8474;SDS011;4274;52.012;8.448;2022-12-07T02:07:54;62.57;;;18.63;;
8474;SDS011;4274;52.012;8.448;2022-12-07T02:10:22;71.40;;;20.57;;
8474;SDS011;4274;52.012;8.448;2022-12-07T02:12:51;68.27;;;19.30;;
8474;SDS011;4274;52.012;8.448;2022-12-07T02:15:35;65.57;;;18.20;;
8474;SDS011;4274;52.012;8.448;2022-12-07T02:18:25;70.80;;;19.60;;
8474;SDS011;4274;52.012;8.448;2022-12-07T02:23:53;62.60;;;18.00;;
8474;SDS011;4274;52.012;8.448;2022-12-07T02:26:50;61.87;;;17.27;;
8474;SDS011;4274;52.012;8.448;2022-12-07T02:29:58;61.70;;;15.50;;
8474;SDS011;4274;52.012;8.448;2022-12-07T02:32:32;56.47;;;15.17;;
8474;SDS011;4274;52.012;8.448;2022-12-07T02:37:58;60.93;;;14.83;;
8474;SDS011;4274;52.012;8.448;2022-12-07T02:43:17;58.03;;;15.00;;
8474;SDS011;4274;52.012;8.448;2022-12-07T02:45:49;71.00;;;14.37;;
8474;SDS011;4274;52.012;8.448;2022-12-07T02:48:18;56.83;;;12.63;;
8474;SDS011;4274;52.012;8.448;2022-12-07T02:50:47;55.17;;;12.27;;
8474;SDS011;4274;52.012;8.448;2022-12-07T02:56:02;54.90;;;12.63;;
8474;SDS011;4274;52.012;8.448;2022-12-07T02:58:43;57.57;;;11.80;;
8474;SDS011;4274;52.012;8.448;2022-12-07T03:01:19;53.20;;;12.63;;
8474;SDS011;4274;52.012;8.448;2022-12-07T03:07:43;68.43;;;10.80;;
8474;SDS011;4274;52.012;8.448;2022-12-07T03:10:20;51.33;;;11.73;;
8474;SDS011;4274;52.012;8.448;2022-12-07T03:15:49;65.13;;;11.90;;
8474;SDS011;4274;52.012;8.448;2022-12-07T03:18:28;58.50;;;11.83;;
8474;SDS011;4274;52.012;8.448;2022-12-07T03:20:57;57.43;;;11.97;;
8474;SDS011;4274;52.012;8.448;2022-12-07T03:23:27;59.87;;;12.37;;
8474;SDS011;4274;52.012;8.448;2022-12-07T03:25:55;57.43;;;11.83;;
8474;SDS011;4274;52.012;8.448;2022-12-07T03:28:26;56.87;;;12.20;;
8474;SDS011;4274;52.012;8.448;2022-12-07T03:37:00;51.27;;;11.50;;
8474;SDS011;4274;52.012;8.448;2022-12-07T03:39:33;59.87;;;11.47;;
8474;SDS011;4274;52.012;8.448;2022-12-07T03:42:16;48.93;;;10.53;;
8474;SDS011;4274;52.012;8.448;2022-12-07T03:44:41;58.00;;;11.83;;
8474;SDS011;4274;52.012;8.448;2022-12-07T03:49:55;51.63;;;10.93;;
8474;SDS011;4274;52.012;8.448;2022-12-07T03:52:29;53.90;;;11.03;;
8474;SDS011;4274;52.012;8.448;2022-12-07T03:55:08;55.90;;;10.30;;
8474;SDS011;4274;52.012;8.448;2022-12-07T03:57:42;48.40;;;10.33;;
8474;SDS011;4274;52.012;8.448;2022-12-07T04:00:10;50.57;;;10.47;;
8474;SDS011;4274;52.012;8.448;2022-12-07T04:02:36;53.43;;;9.97;;
8474;SDS011;4274;52.012;8.448;2022-12-07T04:05:02;54.00;;;10.47;;
8474;SDS011;4274;52.012;8.448;2022-12-07T04:07:28;51.50;;;10.30;;
8474;SDS011;4274;52.012;8.448;2022-12-07T04:09:54;54.37;;;10.93;;
8474;SDS011;4274;52.012;8.448;2022-12-07T04:12:22;52.70;;;8.87;;
8474;SDS011;4274;52.012;8.448;2022-12-07T04:14:48;49.90;;;10.10;;
8474;SDS011;4274;52.012;8.448;2022-12-07T04:17:14;55.63;;;10.43;;
8474;SDS011;4274;52.012;8.448;2022-12-07T04:19:40;56.63;;;10.80;;
8474;SDS011;4274;52.012;8.448;2022-12-07T04:22:05;55.03;;;9.37;;
8474;SDS011;4274;52.012;8.448;2022-12-07T04:24:32;54.27;;;9.93;;
8474;SDS011;4274;52.012;8.448;2022-12-07T04:26:57;52.23;;;10.20;;
8474;SDS011;4274;52.012;8.448;2022-12-07T04:29:23;54.53;;;9.47;;
8474;SDS011;4274;52.012;8.448;2022-12-07T04:31:49;49.80;;;9.13;;
8474;SDS011;4274;52.012;8.448;2022-12-07T04:34:16;56.43;;;8.83;;
8474;SDS011;4274;52.012;8.448;2022-12-07T04:36:42;54.30;;;9.90;;
8474;SDS011;4274;52.012;8.448;2022-12-07T04:39:09;53.53;;;9.80;;
8474;SDS011;4274;52.012;8.448;2022-12-07T04:41:44;47.37;;;8.40;;
8474;SDS011;4274;52.012;8.448;2022-12-07T04:44:09;52.07;;;8.67;;
8474;SDS011;4274;52.012;8.448;2022-12-07T04:46:36;49.87;;;9.70;;
8474;SDS011;4274;52.012;8.448;2022-12-07T04:49:01;55.00;;;8.60;;
8474;SDS011;4274;52.012;8.448;2022-12-07T04:51:28;58.63;;;9.83;;
8474;SDS011;4274;52.012;8.448;2022-12-07T04:53:54;58.20;;;10.10;;
8474;SDS011;4274;52.012;8.448;2022-12-07T04:56:21;50.20;;;9.27;;
8474;SDS011;4274;52.012;8.448;2022-12-07T04:58:47;56.63;;;9.50;;
8474;SDS011;4274;52.012;8.448;2022-12-07T05:01:14;53.50;;;9.67;;
8474;SDS011;4274;52.012;8.448;2022-12-07T05:03:40;51.07;;;9.10;;
8474;SDS011;4274;52.012;8.448;2022-12-07T05:06:06;50.17;;;9.10;;
8474;SDS011;4274;52.012;8.448;2022-12-07T05:08:33;48.40;;;9.00;;
8474;SDS011;4274;52.012;8.448;2022-12-07T05:10:59;51.77;;;10.73;;
8474;SDS011;4274;52.012;8.448;2022-12-07T05:13:25;51.90;;;9.63;;
8474;SDS011;4274;52.012;8.448;2022-12-07T05:15:51;48.03;;;9.43;;
8474;SDS011;4274;52.012;8.448;2022-12-07T05:18:16;52.80;;;9.70;;
8474;SDS011;4274;52.012;8.448;2022-12-07T05:20:42;51.03;;;10.43;;
8474;SDS011;4274;52.012;8.448;2022-12-07T05:23:09;53.10;;;9.50;;
8474;SDS011;4274;52.012;8.448;2022-12-07T05:25:34;50.53;;;9.77;;
8474;SDS011;4274;52.012;8.448;2022-12-07T05:28:01;57.43;;;9.10;;
8474;SDS011;4274;52.012;8.448;2022-12-07T05:30:27;62.43;;;10.03;;
8474;SDS011;4274;52.012;8.448;2022-12-07T05:32:52;55.67;;;9.33;;
8474;SDS011;4274;52.012;8.448;2022-12-07T05:35:18;51.73;;;9.17;;
8474;SDS011;4274;52.012;8.448;2022-12-07T05:37:44;51.20;;;10.17;;
8474;SDS011;4274;52.012;8.448;2022-12-07T05:40:11;48.03;;;9.77;;
8474;SDS011;4274;52.012;8.448;2022-12-07T05:42:38;51.77;;;10.33;;
8474;SDS011;4274;52.012;8.448;2022-12-07T05:45:04;53.27;;;10.57;;
8474;SDS011;4274;52.012;8.448;2022-12-07T05:47:30;57.43;;;10.37;;
8474;SDS011;4274;52.012;8.448;2022-12-07T05:49:56;58.43;;;9.00;;
8474;SDS011;4274;52.012;8.448;2022-12-07T05:52:22;58.90;;;9.90;;
8474;SDS011;4274;52.012;8.448;2022-12-07T05:54:48;49.20;;;9.40;;
8474;SDS011;4274;52.012;8.448;2022-12-07T05:57:13;59.10;;;9.03;;
8474;SDS011;4274;52.012;8.448;2022-12-07T05:59:39;53.70;;;9.40;;
8474;SDS011;4274;52.012;8.448;2022-12-07T06:02:06;52.73;;;8.80;;
8474;SDS011;4274;52.012;8.448;2022-12-07T06:04:35;47.70;;;8.80;;
8474;SDS011;4274;52.012;8.448;2022-12-07T06:07:05;50.37;;;9.00;;
8474;SDS011;4274;52.012;8.448;2022-12-07T06:09:31;53.87;;;9.30;;
8474;SDS011;4274;52.012;8.448;2022-12-07T06:11:58;55.90;;;10.10;;
8474;SDS011;4274;52.012;8.448;2022-12-07T06:14:43;59.43;;;9.87;;
8474;SDS011;4274;52.012;8.448;2022-12-07T06:17:09;54.27;;;9.50;;
8474;SDS011;4274;52.012;8.448;2022-12-07T06:19:34;46.63;;;8.60;;
8474;SDS011;4274;52.012;8.448;2022-12-07T06:22:00;51.13;;;9.97;;
8474;SDS011;4274;52.012;8.448;2022-12-07T06:24:27;50.67;;;9.13;;
8474;SDS011;4274;52.012;8.448;2022-12-07T06:26:53;53.23;;;9.23;;
8474;SDS011;4274;52.012;8.448;2022-12-07T06:29:18;47.73;;;8.93;;
8474;SDS011;4274;52.012;8.448;2022-12-07T06:31:44;50.80;;;9.40;;
8474;SDS011;4274;52.012;8.448;2022-12-07T06:34:11;49.17;;;8.57;;
8474;SDS011;4274;52.012;8.448;2022-12-07T06:36:38;50.60;;;9.07;;
8474;SDS011;4274;52.012;8.448;2022-12-07T06:39:04;48.90;;;8.00;;
8474;SDS011;4274;52.012;8.448;2022-12-07T06:41:30;47.47;;;8.10;;
8474;SDS011;4274;52.012;8.448;2022-12-07T06:43:56;51.00;;;7.70;;
8474;SDS011;4274;52.012;8.448;2022-12-07T06:46:22;52.07;;;7.87;;
8474;SDS011;4274;52.012;8.448;2022-12-07T06:48:48;46.50;;;8.80;;
8474;SDS011;4274;52.012;8.448;2022-12-07T06:51:14;50.23;;;8.87;;
8474;SDS011;4274;52.012;8.448;2022-12-07T06:53:41;49.97;;;9.40;;
8474;SDS011;4274;52.012;8.448;2022-12-07T06:56:07;49.53;;;8.23;;
8474;SDS011;4274;52.012;8.448;2022-12-07T06:58:32;51.37;;;8.27;;
8474;SDS011;4274;52.012;8.448;2022-12-07T07:00:58;53.07;;;7.87;;
8474;SDS011;4274;52.012;8.448;2022-12-07T07:03:23;56.37;;;8.10;;
8474;SDS011;4274;52.012;8.448;2022-12-07T07:05:49;45.73;;;8.23;;
8474;SDS011;4274;52.012;8.448;2022-12-07T07:08:14;44.60;;;7.33;;
8474;SDS011;4274;52.012;8.448;2022-12-07T07:10:40;51.90;;;8.03;;
8474;SDS011;4274;52.012;8.448;2022-12-07T07:13:06;50.60;;;8.57;;
8474;SDS011;4274;52.012;8.448;2022-12-07T07:15:32;57.17;;;8.60;;
8474;SDS011;4274;52.012;8.448;2022-12-07T07:17:59;46.60;;;7.50;;
8474;SDS011;4274;52.012;8.448;2022-12-07T07:20:25;54.93;;;7.20;;
8474;SDS011;4274;52.012;8.448;2022-12-07T07:22:53;51.47;;;6.97;;
8474;SDS011;4274;52.012;8.448;2022-12-07T07:25:19;52.70;;;7.50;;
8474;SDS011;4274;52.012;8.448;2022-12-07T07:27:44;45.90;;;7.57;;
8474;SDS011;4274;52.012;8.448;2022-12-07T07:30:10;52.10;;;7.90;;
8474;SDS011;4274;52.012;8.448;2022-12-07T07:32:37;49.53;;;7.70;;
8474;SDS011;4274;52.012;8.448;2022-12-07T07:35:03;51.47;;;8.30;;
8474;SDS011;4274;52.012;8.448;2022-12-07T07:37:29;53.47;;;7.63;;
8474;SDS011;4274;52.012;8.448;2022-12-07T07:39:54;49.10;;;7.10;;
8474;SDS011;4274;52.012;8.448;2022-12-07T07:42:20;49.70;;;9.43;;
8474;SDS011;4274;52.012;8.448;2022-12-07T07:44:45;44.93;;;6.73;;
8474;SDS011;4274;52.012;8.448;2022-12-07T07:47:11;55.27;;;6.80;;
8474;SDS011;4274;52.012;8.448;2022-12-07T07:49:37;50.17;;;6.80;;
8474;SDS011;4274;52.012;8.448;2022-12-07T07:52:02;47.40;;;6.87;;
8474;SDS011;4274;52.012;8.448;2022-12-07T07:54:28;52.20;;;6.87;;
8474;SDS011;4274;52.012;8.448;2022-12-07T07:56:54;50.47;;;7.67;;
8474;SDS011;4274;52.012;8.448;2022-12-07T07:59:19;48.63;;;7.13;;
8474;SDS011;4274;52.012;8.448;2022-12-07T08:01:45;47.70;;;7.63;;
8474;SDS011;4274;52.012;8.448;2022-12-07T08:04:10;49.93;;;7.30;;
8474;SDS011;4274;52.012;8.448;2022-12-07T08:06:36;51.63;;;8.17;;
8474;SDS011;4274;52.012;8.448;2022-12-07T08:09:02;55.23;;;6.40;;
8474;SDS011;4274;52.012;8.448;2022-12-07T08:11:30;47.83;;;6.60;;
8474;SDS011;4274;52.012;8.448;2022-12-07T08:13:55;45.37;;;7.00;;
8474;SDS011;4274;52.012;8.448;2022-12-07T08:16:21;46.67;;;7.00;;
8474;SDS011;4274;52.012;8.448;2022-12-07T08:18:46;50.37;;;7.60;;
8474;SDS011;4274;52.012;8.448;2022-12-07T08:21:13;51.23;;;6.40;;
8474;SDS011;4274;52.012;8.448;2022-12-07T08:23:39;45.80;;;6.40;;
8474;SDS011;4274;52.012;8.448;2022-12-07T08:26:06;45.10;;;6.70;;
8474;SDS011;4274;52.012;8.448;2022-12-07T08:28:34;56.63;;;6.80;;
8474;SDS011;4274;52.012;8.448;2022-12-07T08:31:04;46.00;;;5.17;;
8474;SDS011;4274;52.012;8.448;2022-12-07T08:33:36;42.67;;;5.40;;
8474;SDS011;4274;52.012;8.448;2022-12-07T08:36:06;56.07;;;7.27;;
8474;SDS011;4274;52.012;8.448;2022-12-07T08:38:35;46.00;;;5.00;;
8474;SDS011;4274;52.012;8.448;2022-12-07T08:41:02;42.57;;;5.23;;
8474;SDS011;4274;52.012;8.448;2022-12-07T08:43:28;52.20;;;6.00;;
8474;SDS011;4274;52.012;8.448;2022-12-07T08:45:58;44.10;;;4.50;;
8474;SDS011;4274;52.012;8.448;2022-12-07T08:48:39;50.50;;;5.63;;
8474;SDS011;4274;52.012;8.448;2022-12-07T08:51:08;47.43;;;6.03;;
8474;SDS011;4274;52.012;8.448;2022-12-07T08:53:34;50.33;;;5.90;;
8474;SDS011;4274;52.012;8.448;2022-12-07T08:56:01;47.17;;;7.03;;
8474;SDS011;4274;52.012;8.448;2022-12-07T08:58:27;45.00;;;5.30;;
8474;SDS011;4274;52.012;8.448;2022-12-07T09:00:52;54.53;;;5.50;;
8474;SDS011;4274;52.012;8.448;2022-12-07T09:03:18;46.03;;;5.33;;
8474;SDS011;4274;52.012;8.448;2022-12-07T09:05:43;47.43;;;5.17;;
8474;SDS011;4274;52.012;8.448;2022-12-07T09:08:09;46.80;;;5.20;;
8474;SDS011;4274;52.012;8.448;2022-12-07T09:10:35;48.83;;;5.17;;
8474;SDS011;4274;52.012;8.448;2022-12-07T09:13:01;46.30;;;4.83;;
8474;SDS011;4274;52.012;8.448;2022-12-07T09:15:27;46.27;;;4.70;;
8474;SDS011;4274;52.012;8.448;2022-12-07T09:17:53;47.83;;;4.53;;
8474;SDS011;4274;52.012;8.448;2022-12-07T09:20:19;47.47;;;5.33;;
8474;SDS011;4274;52.012;8.448;2022-12-07T09:22:44;48.47;;;4.47;;
8474;SDS011;4274;52.012;8.448;2022-12-07T09:25:10;52.20;;;5.10;;
8474;SDS011;4274;52.012;8.448;2022-12-07T09:27:36;49.37;;;6.00;;
8474;SDS011;4274;52.012;8.448;2022-12-07T09:30:02;51.97;;;4.95;;
8474;SDS011;4274;52.012;8.448;2022-12-07T09:32:28;42.87;;;4.40;;
8474;SDS011;4274;52.012;8.448;2022-12-07T09:34:54;42.13;;;4.10;;
8474;SDS011;4274;52.012;8.448;2022-12-07T09:37:20;44.93;;;4.60;;
8474;SDS011;4274;52.012;8.448;2022-12-07T09:39:45;44.37;;;4.53;;
8474;SDS011;4274;52.012;8.448;2022-12-07T09:42:12;45.93;;;4.40;;
8474;SDS011;4274;52.012;8.448;2022-12-07T09:45:29;44.50;;;4.30;;
8474;SDS011;4274;52.012;8.448;2022-12-07T09:47:57;46.67;;;4.43;;
8474;SDS011;4274;52.012;8.448;2022-12-07T09:50:25;45.73;;;4.37;;
8474;SDS011;4274;52.012;8.448;2022-12-07T09:52:53;46.07;;;4.30;;
8474;SDS011;4274;52.012;8.448;2022-12-07T09:55:41;52.67;;;4.70;;
8474;SDS011;4274;52.012;8.448;2022-12-07T09:58:12;48.50;;;4.30;;
8474;SDS011;4274;52.012;8.448;2022-12-07T10:01:12;41.67;;;5.13;;
8474;SDS011;4274;52.012;8.448;2022-12-07T10:03:53;48.13;;;3.97;;
8474;SDS011;4274;52.012;8.448;2022-12-07T10:06:23;48.57;;;4.70;;
8474;SDS011;4274;52.012;8.448;2022-12-07T10:08:48;43.60;;;4.77;;
8474;SDS011;4274;52.012;8.448;2022-12-07T10:11:14;44.33;;;4.47;;
8474;SDS011;4274;52.012;8.448;2022-12-07T10:13:45;43.47;;;4.60;;
8474;SDS011;4274;52.012;8.448;2022-12-07T10:16:27;49.40;;;5.63;;
8474;SDS011;4274;52.012;8.448;2022-12-07T10:22:09;48.47;;;4.63;;
8474;SDS011;4274;52.012;8.448;2022-12-07T10:24:37;47.47;;;4.73;;
8474;SDS011;4274;52.012;8.448;2022-12-07T10:27:18;40.63;;;4.00;;
8474;SDS011;4274;52.012;8.448;2022-12-07T10:29:47;46.17;;;3.67;;
8474;SDS011;4274;52.012;8.448;2022-12-07T10:34:40;43.60;;;4.17;;
8474;SDS011;4274;52.012;8.448;2022-12-07T10:37:27;44.97;;;4.70;;
8474;SDS011;4274;52.012;8.448;2022-12-07T10:39:56;49.97;;;4.70;;
8474;SDS011;4274;52.012;8.448;2022-12-07T10:42:26;41.40;;;3.97;;
8474;SDS011;4274;52.012;8.448;2022-12-07T10:45:27;43.83;;;3.97;;
8474;SDS011;4274;52.012;8.448;2022-12-07T10:47:50;41.90;;;4.10;;
8474;SDS011;4274;52.012;8.448;2022-12-07T10:55:48;45.87;;;3.77;;
8474;SDS011;4274;52.012;8.448;2022-12-07T10:58:35;42.50;;;4.30;;
8474;SDS011;4274;52.012;8.448;2022-12-07T11:03:51;44.23;;;3.50;;
8474;SDS011;4274;52.012;8.448;2022-12-07T11:06:27;43.67;;;3.30;;
8474;SDS011;4274;52.012;8.448;2022-12-07T11:12:05;46.37;;;4.00;;
8474;SDS011;4274;52.012;8.448;2022-12-07T11:14:42;45.13;;;4.23;;
8474;SDS011;4274;52.012;8.448;2022-12-07T11:22:48;41.97;;;3.13;;
8474;SDS011;4274;52.012;8.448;2022-12-07T11:25:29;47.40;;;3.57;;
8474;SDS011;4274;52.012;8.448;2022-12-07T11:30:50;44.87;;;3.57;;
8474;SDS011;4274;52.012;8.448;2022-12-07T11:33:27;44.20;;;3.67;;
8474;SDS011;4274;52.012;8.448;2022-12-07T11:38:57;44.07;;;4.77;;
8474;SDS011;4274;52.012;8.448;2022-12-07T11:41:29;43.50;;;3.60;;
8474;SDS011;4274;52.012;8.448;2022-12-07T11:44:06;40.67;;;3.57;;
8474;SDS011;4274;52.012;8.448;2022-12-07T11:46:47;52.03;;;4.63;;
8474;SDS011;4274;52.012;8.448;2022-12-07T11:52:04;42.20;;;2.80;;
8474;SDS011;4274;52.012;8.448;2022-12-07T11:54:35;41.70;;;2.83;;
8474;SDS011;4274;52.012;8.448;2022-12-07T11:57:09;46.40;;;3.13;;
8474;SDS011;4274;52.012;8.448;2022-12-07T11:59:45;43.07;;;3.17;;
8474;SDS011;4274;52.012;8.448;2022-12-07T12:02:37;43.00;;;3.40;;
8474;SDS011;4274;52.012;8.448;2022-12-07T12:05:16;43.70;;;3.53;;
8474;SDS011;4274;52.012;8.448;2022-12-07T12:07:46;46.77;;;4.83;;
8474;SDS011;4274;52.012;8.448;2022-12-07T12:10:54;48.13;;;5.20;;
8474;SDS011;4274;52.012;8.448;2022-12-07T12:13:31;43.07;;;3.53;;
8474;SDS011;4274;52.012;8.448;2022-12-07T12:16:10;42.63;;;3.00;;
8474;SDS011;4274;52.012;8.448;2022-12-07T12:21:30;45.57;;;3.47;;
8474;SDS011;4274;52.012;8.448;2022-12-07T12:24:04;44.30;;;3.37;;
8474;SDS011;4274;52.012;8.448;2022-12-07T12:26:37;41.50;;;2.67;;
8474;SDS011;4274;52.012;8.448;2022-12-07T12:29:13;41.03;;;2.87;;
8474;SDS011;4274;52.012;8.448;2022-12-07T12:32:04;42.63;;;2.87;;
8474;SDS011;4274;52.012;8.448;2022-12-07T12:45:18;46.27;;;3.00;;
8474;SDS011;4274;52.012;8.448;2022-12-07T12:47:58;42.27;;;3.77;;
8474;SDS011;4274;52.012;8.448;2022-12-07T12:53:02;43.17;;;3.20;;
8474;SDS011;4274;52.012;8.448;2022-12-07T13:00:45;48.10;;;3.47;;
8474;SDS011;4274;52.012;8.448;2022-12-07T13:03:26;44.03;;;3.43;;
8474;SDS011;4274;52.012;8.448;2022-12-07T13:08:49;47.23;;;3.73;;
8474;SDS011;4274;52.012;8.448;2022-12-07T13:11:31;47.40;;;4.20;;
8474;SDS011;4274;52.012;8.448;2022-12-07T13:17:02;47.60;;;4.50;;
8474;SDS011;4274;52.012;8.448;2022-12-07T13:20:39;45.77;;;4.03;;
8474;SDS011;4274;52.012;8.448;2022-12-07T13:25:07;45.97;;;4.17;;
8474;SDS011;4274;52.012;8.448;2022-12-07T13:27:47;46.33;;;2.80;;
8474;SDS011;4274;52.012;8.448;2022-12-07T13:30:21;43.73;;;3.67;;
8474;SDS011;4274;52.012;8.448;2022-12-07T13:32:51;40.87;;;3.13;;
8474;SDS011;4274;52.012;8.448;2022-12-07T13:35:32;46.03;;;3.37;;
8474;SDS011;4274;52.012;8.448;2022-12-07T13:40:30;43.80;;;3.50;;
8474;SDS011;4274;52.012;8.448;2022-12-07T13:43:00;45.00;;;2.97;;
8474;SDS011;4274;52.012;8.448;2022-12-07T13:45:30;42.90;;;3.13;;
8474;SDS011;4274;52.012;8.448;2022-12-07T13:50:48;41.87;;;3.00;;
8474;SDS011;4274;52.012;8.448;2022-12-07T13:53:19;47.17;;;3.40;;
8474;SDS011;4274;52.012;8.448;2022-12-07T13:55:45;48.67;;;2.93;;
8474;SDS011;4274;52.012;8.448;2022-12-07T13:58:11;52.57;;;3.80;;
8474;SDS011;4274;52.012;8.448;2022-12-07T14:00:37;49.03;;;3.63;;
8474;SDS011;4274;52.012;8.448;2022-12-07T14:05:36;40.93;;;2.50;;
8474;SDS011;4274;52.012;8.448;2022-12-07T14:08:22;45.03;;;3.10;;
8474;SDS011;4274;52.012;8.448;2022-12-07T14:13:27;48.87;;;3.97;;
8474;SDS011;4274;52.012;8.448;2022-12-07T14:16:23;48.33;;;4.60;;
8474;SDS011;4274;52.012;8.448;2022-12-07T14:18:47;41.27;;;3.30;;
8474;SDS011;4274;52.012;8.448;2022-12-07T14:23:38;48.03;;;3.63;;
8474;SDS011;4274;52.012;8.448;2022-12-07T14:26:12;47.37;;;3.73;;
8474;SDS011;4274;52.012;8.448;2022-12-07T14:28:39;43.07;;;3.30;;
8474;SDS011;4274;52.012;8.448;2022-12-07T14:31:10;42.40;;;3.40;;
8474;SDS011;4274;52.012;8.448;2022-12-07T14:33:46;47.93;;;3.10;;
8474;SDS011;4274;52.012;8.448;2022-12-07T14:36:12;47.60;;;3.40;;
8474;SDS011;4274;52.012;8.448;2022-12-07T14:38:39;43.77;;;3.53;;
8474;SDS011;4274;52.012;8.448;2022-12-07T14:41:06;41.37;;;3.33;;
8474;SDS011;4274;52.012;8.448;2022-12-07T14:43:57;48.50;;;4.03;;
8474;SDS011;4274;52.012;8.448;2022-12-07T14:46:23;43.03;;;3.47;;
8474;SDS011;4274;52.012;8.448;2022-12-07T14:48:48;58.50;;;3.93;;
8474;SDS011;4274;52.012;8.448;2022-12-07T14:51:14;49.90;;;3.43;;
8474;SDS011;4274;52.012;8.448;2022-12-07T14:53:42;45.10;;;3.60;;
8474;SDS011;4274;52.012;8.448;2022-12-07T14:56:11;45.83;;;3.97;;
8474;SDS011;4274;52.012;8.448;2022-12-07T14:58:37;43.37;;;4.10;;
8474;SDS011;4274;52.012;8.448;2022-12-07T15:01:03;42.27;;;3.33;;
8474;SDS011;4274;52.012;8.448;2022-12-07T15:03:28;48.07;;;4.40;;
8474;SDS011;4274;52.012;8.448;2022-12-07T15:05:54;45.00;;;3.30;;
8474;SDS011;4274;52.012;8.448;2022-12-07T15:08:20;42.17;;;3.20;;
8474;SDS011;4274;52.012;8.448;2022-12-07T15:10:46;45.53;;;3.17;;
8474;SDS011;4274;52.012;8.448;2022-12-07T15:13:11;46.90;;;3.20;;
8474;SDS011;4274;52.012;8.448;2022-12-07T15:15:56;45.90;;;3.90;;
8474;SDS011;4274;52.012;8.448;2022-12-07T15:18:22;49.97;;;3.93;;
8474;SDS011;4274;52.012;8.448;2022-12-07T15:20:48;48.07;;;3.70;;
8474;SDS011;4274;52.012;8.448;2022-12-07T15:23:14;47.30;;;4.37;;
8474;SDS011;4274;52.012;8.448;2022-12-07T15:25:40;43.57;;;3.67;;
8474;SDS011;4274;52.012;8.448;2022-12-07T15:28:09;51.43;;;3.93;;
8474;SDS011;4274;52.012;8.448;2022-12-07T15:30:38;39.90;;;3.83;;
8474;SDS011;4274;52.012;8.448;2022-12-07T15:33:07;50.40;;;6.40;;
8474;SDS011;4274;52.012;8.448;2022-12-07T15:35:33;45.47;;;4.20;;
8474;SDS011;4274;52.012;8.448;2022-12-07T15:37:58;43.90;;;5.27;;
8474;SDS011;4274;52.012;8.448;2022-12-07T15:40:24;47.23;;;4.97;;
8474;SDS011;4274;52.012;8.448;2022-12-07T15:42:49;52.03;;;4.67;;
8474;SDS011;4274;52.012;8.448;2022-12-07T15:45:15;47.43;;;4.67;;
8474;SDS011;4274;52.012;8.448;2022-12-07T15:47:41;51.47;;;4.37;;
8474;SDS011;4274;52.012;8.448;2022-12-07T15:50:10;49.70;;;4.00;;
8474;SDS011;4274;52.012;8.448;2022-12-07T15:52:38;43.50;;;4.30;;
8474;SDS011;4274;52.012;8.448;2022-12-07T15:55:04;44.43;;;4.47;;
8474;SDS011;4274;52.012;8.448;2022-12-07T15:57:31;49.63;;;5.30;;
8474;SDS011;4274;52.012;8.448;2022-12-07T15:59:58;44.77;;;5.10;;
8474;SDS011;4274;52.012;8.448;2022-12-07T16:02:24;50.50;;;4.47;;
8474;SDS011;4274;52.012;8.448;2022-12-07T16:04:50;46.27;;;4.60;;
8474;SDS011;4274;52.012;8.448;2022-12-07T16:07:16;50.60;;;5.60;;
8474;SDS011;4274;52.012;8.448;2022-12-07T16:09:43;47.90;;;5.60;;
8474;SDS011;4274;52.012;8.448;2022-12-07T16:12:10;45.90;;;4.90;;
8474;SDS011;4274;52.012;8.448;2022-12-07T16:14:37;50.50;;;7.20;;
8474;SDS011;4274;52.012;8.448;2022-12-07T16:17:03;44.27;;;5.83;;
8474;SDS011;4274;52.012;8.448;2022-12-07T16:19:30;47.47;;;5.83;;
8474;SDS011;4274;52.012;8.448;2022-12-07T16:21:56;53.20;;;5.37;;
8474;SDS011;4274;52.012;8.448;2022-12-07T16:24:22;42.60;;;5.30;;
8474;SDS011;4274;52.012;8.448;2022-12-07T16:26:48;52.50;;;4.70;;
8474;SDS011;4274;52.012;8.448;2022-12-07T16:29:14;46.10;;;5.40;;
8474;SDS011;4274;52.012;8.448;2022-12-07T16:31:40;44.67;;;5.43;;
8474;SDS011;4274;52.012;8.448;2022-12-07T16:34:06;48.03;;;5.23;;
8474;SDS011;4274;52.012;8.448;2022-12-07T16:36:32;47.40;;;4.70;;
8474;SDS011;4274;52.012;8.448;2022-12-07T16:38:58;47.47;;;4.60;;
8474;SDS011;4274;52.012;8.448;2022-12-07T16:41:24;45.00;;;4.53;;
8474;SDS011;4274;52.012;8.448;2022-12-07T16:43:50;43.43;;;4.90;;
8474;SDS011;4274;52.012;8.448;2022-12-07T16:46:16;46.20;;;5.90;;
8474;SDS011;4274;52.012;8.448;2022-12-07T16:48:42;45.00;;;4.70;;
8474;SDS011;4274;52.012;8.448;2022-12-07T16:51:09;47.57;;;6.00;;
8474;SDS011;4274;52.012;8.448;2022-12-07T16:53:36;47.57;;;5.93;;
8474;SDS011;4274;52.012;8.448;2022-12-07T16:56:03;47.33;;;5.53;;